Time;durP1;ratioP1;P1;durP2;ratioP2;P2;SDS_P1;SDS_P2;PMS_P1;PMS_P2;Temp;Humidity;BMP_temperature;BMP_pressure;BME280_temperature;BME280_humidity;BME280_pressure;Samples;Min_cycle;Max_cycle;Signal;HPM_P1;HPM_P2
2021/06/22 00:01:00;;;;;;;8.55;4.57;;;13.40;99.90;;;;;;5078404;28;20529;-42
2021/06/22 00:03:25;;;;;;;6.63;3.67;;;13.40;99.90;;;;;;5066806;28;20032;-42
2021/06/22 00:05:51;;;;;;;6.75;4.22;;;13.40;99.90;;;;;;5073191;28;20049;-42
2021/06/22 00:08:16;;;;;;;7.85;4.10;;;13.40;99.90;;;;;;5066027;28;20043;-42
2021/06/22 00:10:42;;;;;;;5.65;3.85;;;13.30;99.90;;;;;;5076656;28;20425;-42
2021/06/22 00:13:07;;;;;;;7.40;4.00;;;13.30;99.90;;;;;;5068286;28;20123;-42
2021/06/22 00:15:36;;;;;;;7.75;3.88;;;13.30;99.90;;;;;;5074150;28;20028;-42
2021/06/22 00:18:02;;;;;;;8.23;4.15;;;13.30;99.90;;;;;;5070710;28;20020;-43
2021/06/22 00:20:27;;;;;;;5.32;3.90;;;13.30;99.90;;;;;;5073368;28;20103;-42
2021/06/22 00:22:54;;;;;;;8.15;4.13;;;13.30;99.90;;;;;;5077309;28;20341;-43
2021/06/22 00:25:21;;;;;;;7.85;4.68;;;13.20;99.90;;;;;;5073051;28;20195;-43
2021/06/22 00:27:48;;;;;;;7.70;4.63;;;13.20;99.90;;;;;;5079407;28;20116;-42
2021/06/22 00:30:14;;;;;;;9.00;4.72;;;13.20;99.90;;;;;;5071344;28;20690;-43
2021/06/22 00:32:43;;;;;;;7.32;4.30;;;13.10;99.90;;;;;;5080367;28;20518;-43
2021/06/22 00:35:09;;;;;;;6.97;4.70;;;13.10;99.90;;;;;;5071005;28;20021;-43
2021/06/22 00:37:35;;;;;;;7.05;4.40;;;13.10;99.90;;;;;;5081878;28;20023;-43
2021/06/22 00:40:00;;;;;;;8.45;4.50;;;13.10;99.90;;;;;;5069329;28;20021;-43
2021/06/22 00:42:26;;;;;;;7.40;4.82;;;13.00;99.90;;;;;;5082448;28;20100;-43
2021/06/22 00:44:59;;;;;;;8.15;4.50;;;13.00;99.90;;;;;;5069536;28;20435;-43
2021/06/22 00:47:26;;;;;;;6.70;4.18;;;13.00;99.90;;;;;;5082182;28;20507;-43
2021/06/22 00:49:53;;;;;;;10.77;4.72;;;13.00;99.90;;;;;;5069370;28;20028;-43
2021/06/22 00:52:23;;;;;;;6.78;4.75;;;13.00;99.90;;;;;;5081817;28;20028;-43
2021/06/22 00:54:49;;;;;;;7.05;4.72;;;12.90;99.90;;;;;;5049073;28;20180;-43
2021/06/22 00:57:16;;;;;;;8.25;4.80;;;12.90;99.90;;;;;;5064513;28;20016;-42
2021/06/22 00:59:42;;;;;;;8.68;4.80;;;12.90;99.90;;;;;;5068981;28;20029;-42
2021/06/22 01:02:08;;;;;;;7.45;4.75;;;12.90;99.90;;;;;;5076172;28;20148;-41
2021/06/22 01:04:35;;;;;;;7.47;4.70;;;12.80;99.90;;;;;;5084519;28;20040;-42
2021/06/22 01:07:01;;;;;;;8.63;4.75;;;12.80;99.90;;;;;;5079912;28;20140;-40
2021/06/22 01:09:31;;;;;;;7.82;4.97;;;12.80;99.90;;;;;;5075951;28;20028;-42
2021/06/22 01:11:58;;;;;;;9.20;4.88;;;12.80;99.90;;;;;;5073338;28;20024;-42
2021/06/22 01:14:24;;;;;;;7.07;4.90;;;12.80;99.90;;;;;;5070132;28;20036;-42
2021/06/22 01:16:50;;;;;;;8.05;4.82;;;12.80;99.90;;;;;;5069487;28;20027;-42
2021/06/22 01:19:16;;;;;;;7.15;5.20;;;12.80;99.90;;;;;;5080643;28;20025;-43
2021/06/22 01:21:41;;;;;;;6.05;4.68;;;12.80;99.90;;;;;;5070030;28;20117;-43
2021/06/22 01:24:09;;;;;;;8.45;4.72;;;12.80;99.90;;;;;;5079831;28;20451;-42
2021/06/22 01:26:38;;;;;;;5.22;4.25;;;12.80;99.90;;;;;;5069589;28;20028;-44
2021/06/22 01:29:06;;;;;;;6.85;4.57;;;12.70;99.90;;;;;;5074904;28;20124;-42
2021/06/22 01:31:31;;;;;;;8.88;4.45;;;12.80;99.90;;;;;;5089258;28;20047;-42
2021/06/22 01:33:57;;;;;;;8.10;4.95;;;12.70;99.90;;;;;;5075648;28;20490;-42
2021/06/22 01:36:23;;;;;;;7.65;5.30;;;12.70;99.90;;;;;;5076901;28;20025;-42
2021/06/22 01:38:49;;;;;;;12.25;5.18;;;12.70;99.90;;;;;;5078809;28;20407;-42
2021/06/22 01:41:15;;;;;;;6.38;5.00;;;12.70;99.90;;;;;;5067995;28;20499;-42
2021/06/22 01:43:43;;;;;;;10.55;5.35;;;12.70;99.90;;;;;;5075433;28;20123;-42
2021/06/22 01:46:09;;;;;;;6.18;4.72;;;12.60;99.90;;;;;;5069590;28;20076;-42
2021/06/22 01:48:34;;;;;;;11.38;5.78;;;12.60;99.90;;;;;;5073831;28;20118;-42
2021/06/22 01:51:00;;;;;;;7.63;5.50;;;12.60;99.90;;;;;;5071885;28;20165;-43
2021/06/22 01:53:25;;;;;;;9.93;5.43;;;12.60;99.90;;;;;;5071334;28;20507;-43
2021/06/22 01:55:52;;;;;;;9.13;5.30;;;12.50;99.90;;;;;;5076867;28;20027;-43
2021/06/22 01:58:19;;;;;;;6.32;4.85;;;12.50;99.90;;;;;;5069229;28;20029;-42
2021/06/22 02:00:49;;;;;;;9.90;5.68;;;12.50;99.90;;;;;;5079043;28;20028;-43
2021/06/22 02:03:20;;;;;;;9.05;5.20;;;12.50;99.90;;;;;;5069897;28;20020;-43
2021/06/22 02:05:46;;;;;;;9.57;5.65;;;12.50;99.90;;;;;;5081492;28;20513;-43
2021/06/22 02:08:12;;;;;;;9.32;5.35;;;12.50;99.90;;;;;;5087075;28;20436;-43
2021/06/22 02:10:38;;;;;;;8.63;5.53;;;12.50;99.90;;;;;;5077155;28;20019;-42
2021/06/22 02:13:05;;;;;;;7.30;4.65;;;12.50;99.90;;;;;;5087325;28;20020;-43
2021/06/22 02:15:31;;;;;;;9.63;5.10;;;12.50;99.90;;;;;;5075864;28;20027;-42
2021/06/22 02:17:57;;;;;;;9.18;5.20;;;12.40;99.90;;;;;;5087993;28;20071;-41
2021/06/22 02:20:23;;;;;;;6.13;4.55;;;12.40;99.90;;;;;;5075230;28;20035;-42
2021/06/22 02:22:51;;;;;;;5.10;3.88;;;12.40;99.90;;;;;;5088335;28;20016;-42
2021/06/22 02:25:17;;;;;;;9.75;5.90;;;12.40;99.90;;;;;;5076407;28;20021;-42
2021/06/22 02:27:43;;;;;;;11.20;5.70;;;12.40;99.90;;;;;;5086134;28;20647;-42
2021/06/22 02:30:12;;;;;;;9.38;5.57;;;12.40;99.90;;;;;;5079717;28;20021;-42
2021/06/22 02:32:38;;;;;;;9.77;5.82;;;12.40;99.90;;;;;;5083674;28;20050;-42
2021/06/22 02:35:10;;;;;;;9.25;5.53;;;12.40;99.90;;;;;;5080514;28;20020;-42
2021/06/22 02:37:37;;;;;;;6.68;5.00;;;12.40;99.90;;;;;;5082762;28;20020;-42
2021/06/22 02:40:04;;;;;;;9.73;5.90;;;12.40;99.90;;;;;;5081971;28;20021;-43
2021/06/22 02:42:30;;;;;;;7.20;4.95;;;12.40;99.90;;;;;;5079657;28;20043;-43
2021/06/22 02:44:56;;;;;;;9.15;5.50;;;12.40;99.90;;;;;;5085009;28;20433;-43
2021/06/22 02:47:21;;;;;;;7.20;4.88;;;12.40;99.90;;;;;;5076425;28;20056;-42
2021/06/22 02:49:50;;;;;;;8.50;5.75;;;12.30;99.90;;;;;;5085914;28;20017;-43
2021/06/22 02:52:16;;;;;;;11.35;5.93;;;12.30;99.90;;;;;;5076173;28;20559;-43
2021/06/22 02:54:41;;;;;;;7.40;5.40;;;12.30;99.90;;;;;;5085474;28;20482;-43
2021/06/22 02:57:09;;;;;;;8.15;5.15;;;12.30;99.90;;;;;;5075772;28;20031;-42
2021/06/22 02:59:35;;;;;;;8.80;5.18;;;12.30;99.90;;;;;;5087568;28;20122;-43
2021/06/22 03:02:01;;;;;;;8.43;5.30;;;12.30;99.90;;;;;;5073599;28;20066;-42
2021/06/22 03:04:26;;;;;;;8.52;5.35;;;12.20;99.90;;;;;;5087582;28;20067;-42
2021/06/22 03:06:52;;;;;;;8.75;6.07;;;12.20;99.90;;;;;;5074273;28;20048;-43
2021/06/22 03:09:18;;;;;;;11.38;5.95;;;12.20;99.90;;;;;;5086797;28;20093;-42
2021/06/22 03:11:43;;;;;;;10.20;5.70;;;12.20;99.90;;;;;;5076687;28;20051;-42
2021/06/22 03:14:10;;;;;;;8.88;6.00;;;12.10;99.90;;;;;;5084710;28;20024;-43
2021/06/22 03:16:35;;;;;;;7.72;5.72;;;12.10;99.90;;;;;;5079323;28;20025;-42
2021/06/22 03:19:03;;;;;;;13.25;6.40;;;12.10;99.90;;;;;;5081480;28;20028;-42
2021/06/22 03:21:29;;;;;;;10.05;6.50;;;12.10;99.90;;;;;;5081680;28;20023;-42
2021/06/22 03:23:55;;;;;;;8.75;5.53;;;12.10;99.90;;;;;;5078667;28;20139;-43
2021/06/22 03:26:20;;;;;;;7.75;5.10;;;12.10;99.90;;;;;;5084773;28;20585;-42
2021/06/22 03:28:46;;;;;;;7.50;4.45;;;12.10;99.90;;;;;;5076491;28;20039;-42
2021/06/22 03:31:11;;;;;;;7.95;5.72;;;12.10;99.90;;;;;;5085921;28;20005;-42
2021/06/22 03:33:37;;;;;;;10.63;6.20;;;12.20;99.90;;;;;;5075463;28;20020;-42
2021/06/22 03:36:03;;;;;;;10.23;6.03;;;12.10;99.90;;;;;;5085090;28;20077;-43
2021/06/22 03:38:29;;;;;;;10.80;6.53;;;12.10;99.90;;;;;;5075245;28;20076;-42
2021/06/22 03:40:55;;;;;;;11.02;6.60;;;12.10;99.90;;;;;;5086391;28;20099;-42
2021/06/22 03:43:21;;;;;;;8.45;6.13;;;12.10;99.90;;;;;;5073765;28;20032;-42
2021/06/22 03:45:47;;;;;;;7.10;5.28;;;12.10;99.90;;;;;;5086686;28;20028;-43
2021/06/22 03:48:13;;;;;;;10.10;5.55;;;12.10;99.90;;;;;;5073628;28;20577;-43
2021/06/22 03:50:39;;;;;;;7.22;5.20;;;12.10;99.90;;;;;;5086668;28;20046;-42
2021/06/22 03:53:08;;;;;;;7.53;4.55;;;12.10;99.90;;;;;;5076502;28;20021;-42
2021/06/22 03:55:33;;;;;;;7.45;5.30;;;12.10;99.90;;;;;;5087312;28;20028;-42
2021/06/22 03:58:01;;;;;;;7.82;5.00;;;12.10;99.90;;;;;;5082356;28;20374;-42
2021/06/22 04:00:28;;;;;;;8.82;5.25;;;12.10;99.90;;;;;;5086504;28;20047;-42
2021/06/22 04:02:56;;;;;;;10.02;5.40;;;12.10;99.90;;;;;;5084360;28;20375;-42
2021/06/22 04:05:22;;;;;;;7.68;4.80;;;12.10;99.90;;;;;;5083507;28;20139;-42
2021/06/22 04:07:48;;;;;;;10.00;5.10;;;12.10;99.90;;;;;;5074897;28;20099;-42
2021/06/22 04:10:13;;;;;;;8.10;5.10;;;12.10;99.90;;;;;;5079865;28;20033;-42
2021/06/22 04:12:39;;;;;;;10.40;5.20;;;12.10;99.90;;;;;;5071643;28;20037;-42
2021/06/22 04:15:05;;;;;;;8.98;5.18;;;12.00;99.90;;;;;;5081510;28;20013;-42
2021/06/22 04:17:31;;;;;;;8.70;5.15;;;12.10;99.90;;;;;;5071633;28;20064;-42
2021/06/22 04:19:57;;;;;;;7.82;4.88;;;12.10;99.90;;;;;;5081106;28;20040;-42
2021/06/22 04:22:22;;;;;;;8.27;5.05;;;12.10;99.90;;;;;;5070566;28;20390;-42
2021/06/22 04:24:48;;;;;;;10.68;5.22;;;12.10;99.90;;;;;;5082266;28;20036;-42
2021/06/22 04:27:13;;;;;;;9.48;5.30;;;12.10;99.90;;;;;;5070488;28;20028;-41
2021/06/22 04:29:39;;;;;;;9.23;5.40;;;12.20;99.90;;;;;;5083061;28;20024;-42
2021/06/22 04:32:05;;;;;;;8.57;5.03;;;12.20;99.90;;;;;;5069638;28;20036;-42
2021/06/22 04:34:30;;;;;;;8.75;5.47;;;12.20;99.90;;;;;;5080121;28;20437;-42
2021/06/22 04:36:56;;;;;;;14.45;5.25;;;12.20;99.90;;;;;;5071458;28;20116;-42
2021/06/22 04:39:25;;;;;;;8.43;5.35;;;12.30;99.90;;;;;;5077725;28;20032;-42
2021/06/22 04:41:50;;;;;;;10.98;5.60;;;12.30;99.90;;;;;;5074433;28;20056;-42
2021/06/22 04:44:16;;;;;;;11.88;6.07;;;12.30;99.90;;;;;;5074533;28;20071;-42
2021/06/22 04:46:42;;;;;;;8.70;6.00;;;12.30;99.90;;;;;;5076497;28;20021;-43
2021/06/22 04:49:07;;;;;;;12.70;6.55;;;12.30;99.90;;;;;;5072076;28;20448;-42
2021/06/22 04:51:36;;;;;;;9.20;5.72;;;12.40;99.90;;;;;;5079736;28;20066;-43
2021/06/22 04:54:04;;;;;;;9.68;6.32;;;12.40;99.90;;;;;;5070760;28;20034;-42
2021/06/22 04:56:30;;;;;;;9.48;6.57;;;12.40;99.90;;;;;;5081135;28;20039;-42
2021/06/22 04:58:56;;;;;;;12.00;7.07;;;12.50;99.90;;;;;;5070477;28;20107;-42
2021/06/22 05:01:24;;;;;;;10.63;6.45;;;12.50;99.90;;;;;;5079708;28;20169;-42
2021/06/22 05:03:49;;;;;;;10.73;6.82;;;12.60;99.90;;;;;;5069543;28;20102;-41
2021/06/22 05:06:15;;;;;;;11.70;7.10;;;12.70;99.90;;;;;;5079094;28;20472;-42
2021/06/22 05:08:44;;;;;;;13.57;7.63;;;12.80;99.90;;;;;;5069387;28;20028;-42
2021/06/22 05:11:10;;;;;;;12.20;7.90;;;12.90;99.90;;;;;;5081654;28;20765;-42
2021/06/22 05:13:35;;;;;;;11.88;8.00;;;12.90;99.90;;;;;;5069499;28;20021;-42
2021/06/22 05:16:01;;;;;;;12.95;7.60;;;13.00;99.90;;;;;;5079641;28;20047;-43
2021/06/22 05:18:27;;;;;;;10.80;7.18;;;13.10;99.90;;;;;;5070637;28;20471;-41
2021/06/22 05:20:53;;;;;;;13.50;8.20;;;13.20;99.90;;;;;;5071676;28;20106;-42
2021/06/22 05:23:19;;;;;;;11.55;7.80;;;13.20;99.90;;;;;;5071630;28;20075;-42
2021/06/22 05:25:45;;;;;;;12.45;7.63;;;13.30;99.90;;;;;;5065976;28;20020;-43
2021/06/22 05:28:11;;;;;;;9.57;6.93;;;13.40;99.90;;;;;;5074372;28;20075;-43
2021/06/22 05:30:38;;;;;;;16.33;8.40;;;13.50;99.90;;;;;;5070621;28;20376;-43
2021/06/22 05:33:04;;;;;;;10.40;7.97;;;13.60;99.90;;;;;;5075501;28;20024;-43
2021/06/22 05:35:30;;;;;;;13.63;8.50;;;13.60;99.90;;;;;;5069529;28;20096;-43
2021/06/22 05:37:55;;;;;;;12.45;8.38;;;13.70;99.90;;;;;;5078913;28;20111;-42
2021/06/22 05:40:23;;;;;;;17.10;8.95;;;13.80;99.90;;;;;;5069716;28;20796;-43
2021/06/22 05:42:49;;;;;;;11.98;7.57;;;13.90;99.90;;;;;;5078379;28;20052;-42
2021/06/22 05:45:15;;;;;;;9.35;7.10;;;13.90;99.90;;;;;;5068443;28;20056;-43
2021/06/22 05:47:40;;;;;;;13.90;7.88;;;14.00;99.90;;;;;;5074064;28;20068;-42
2021/06/22 05:50:07;;;;;;;11.80;7.85;;;14.10;99.90;;;;;;5067568;28;20028;-42
2021/06/22 05:52:33;;;;;;;11.20;8.73;;;14.20;99.90;;;;;;5077297;28;20012;-42
2021/06/22 05:54:59;;;;;;;10.13;8.10;;;14.20;99.90;;;;;;5088236;28;20026;-42
2021/06/22 05:57:24;;;;;;;12.65;8.98;;;14.30;99.90;;;;;;5075715;28;20601;-42
2021/06/22 05:59:50;;;;;;;13.35;7.95;;;14.40;99.90;;;;;;5086926;28;20046;-42
2021/06/22 06:02:15;;;;;;;12.75;8.05;;;14.50;99.90;;;;;;5078363;28;20025;-42
2021/06/22 06:04:42;;;;;;;14.95;9.27;;;14.50;99.90;;;;;;5065615;28;20039;-43
2021/06/22 06:07:07;;;;;;;16.73;10.02;;;14.60;99.90;;;;;;5079084;28;20046;-42
2021/06/22 06:09:33;;;;;;;18.00;10.15;;;14.60;99.90;;;;;;5075510;28;20135;-42
2021/06/22 06:11:59;;;;;;;13.63;9.02;;;14.70;99.90;;;;;;5066548;28;20518;-43
2021/06/22 06:14:24;;;;;;;13.90;9.23;;;14.70;99.90;;;;;;5068534;28;20076;-42
2021/06/22 06:16:50;;;;;;;17.08;9.65;;;14.70;99.90;;;;;;5071112;28;20012;-42
2021/06/22 06:19:16;;;;;;;13.80;10.05;;;14.70;99.90;;;;;;5076965;28;20475;-42
2021/06/22 06:21:41;;;;;;;16.70;9.95;;;14.80;99.90;;;;;;5087328;28;20020;-42
2021/06/22 06:24:08;;;;;;;15.95;10.13;;;14.80;99.90;;;;;;5076873;28;20032;-42
2021/06/22 06:27:02;;;;;;;16.77;10.82;;;14.80;99.90;;;;;;5088429;28;20020;-43
2021/06/22 06:29:37;;;;;;;14.88;10.25;;;14.80;99.90;;;;;;5076478;28;20127;-42
2021/06/22 06:32:03;;;;;;;14.88;10.68;;;14.80;99.90;;;;;;5068950;28;20036;-43
2021/06/22 06:34:31;;;;;;;16.95;10.63;;;14.80;99.90;;;;;;5079314;28;20513;-42
2021/06/22 06:36:56;;;;;;;12.88;10.40;;;14.70;99.90;;;;;;5067699;28;20463;-42
2021/06/22 06:39:22;;;;;;;15.00;10.77;;;14.70;99.90;;;;;;5079633;28;20116;-42
2021/06/22 06:41:50;;;;;;;15.57;10.43;;;14.70;99.90;;;;;;5067919;28;20044;-42
2021/06/22 06:44:16;;;;;;;19.15;10.82;;;14.80;99.90;;;;;;5080239;28;20047;-42
2021/06/22 06:46:41;;;;;;;17.25;11.27;;;14.90;99.90;;;;;;5067653;28;20074;-43
2021/06/22 06:49:07;;;;;;;16.60;11.65;;;14.90;99.90;;;;;;5078695;28;20039;-42
2021/06/22 06:51:32;;;;;;;16.25;11.27;;;15.00;99.90;;;;;;5068865;28;20096;-42
2021/06/22 06:53:58;;;;;;;14.27;10.15;;;15.10;99.90;;;;;;5075266;28;20031;-43
2021/06/22 06:56:24;;;;;;;13.35;9.93;;;15.10;99.90;;;;;;5071273;28;20519;-43
2021/06/22 06:58:49;;;;;;;15.52;10.45;;;15.10;99.90;;;;;;5072880;28;20040;-43
2021/06/22 07:01:15;;;;;;;15.82;11.73;;;15.20;99.90;;;;;;5075243;28;20016;-43
2021/06/22 07:03:44;;;;;;;14.23;10.88;;;15.30;99.90;;;;;;5056965;28;20378;-42
2021/06/22 07:06:12;;;;;;;15.25;11.05;;;15.40;99.90;;;;;;5077948;28;20137;-44
2021/06/22 07:08:38;;;;;;;18.02;11.65;;;15.50;99.60;;;;;;5062036;28;20032;-42
2021/06/22 07:11:05;;;;;;;16.63;11.50;;;15.50;99.50;;;;;;5058965;28;20029;-42
2021/06/22 07:13:33;;;;;;;16.55;11.30;;;15.70;99.70;;;;;;5059985;28;20025;-42
2021/06/22 07:15:59;;;;;;;15.68;11.77;;;15.70;99.60;;;;;;5074616;28;20393;-43
2021/06/22 07:18:29;;;;;;;16.20;11.70;;;15.80;98.60;;;;;;5050826;28;20029;-43
2021/06/22 07:20:54;;;;;;;16.73;11.52;;;15.80;98.80;;;;;;5075489;28;20066;-43
2021/06/22 07:23:20;;;;;;;17.85;11.00;;;15.80;98.60;;;;;;5057811;28;20079;-43
2021/06/22 07:25:45;;;;;;;18.20;11.90;;;15.90;98.80;;;;;;5066530;28;20025;-43
2021/06/22 07:28:11;;;;;;;15.32;10.70;;;15.90;98.60;;;;;;5056818;28;20035;-45
2021/06/22 07:30:36;;;;;;;14.13;11.48;;;16.00;98.00;;;;;;5067598;28;20570;-43
2021/06/22 07:33:02;;;;;;;13.57;10.35;;;16.20;98.00;;;;;;5086731;28;20024;-42
2021/06/22 07:35:30;;;;;;;15.60;11.30;;;16.30;98.40;;;;;;5077189;28;20044;-42
2021/06/22 07:37:55;;;;;;;16.60;11.23;;;16.30;98.00;;;;;;5083502;28;20024;-43
2021/06/22 07:40:21;;;;;;;11.35;10.15;;;16.40;98.40;;;;;;5080025;28;20017;-43
2021/06/22 07:42:47;;;;;;;15.57;11.40;;;16.50;98.00;;;;;;5081026;28;20383;-43
2021/06/22 07:45:13;;;;;;;17.05;11.27;;;16.50;97.70;;;;;;5082242;28;20028;-43
2021/06/22 07:47:39;;;;;;;14.95;11.80;;;16.50;97.60;;;;;;5079314;28;20127;-43
2021/06/22 07:50:07;;;;;;;14.65;10.90;;;16.50;97.30;;;;;;5084190;28;20022;-43
2021/06/22 07:52:32;;;;;;;15.00;12.35;;;16.60;97.50;;;;;;5076401;28;20085;-43
2021/06/22 07:54:58;;;;;;;16.70;12.00;;;16.70;97.30;;;;;;5083925;28;20024;-43
2021/06/22 07:57:23;;;;;;;15.55;10.23;;;16.70;97.20;;;;;;5073371;28;20024;-42
2021/06/22 07:59:52;;;;;;;15.20;11.18;;;16.80;97.30;;;;;;5086090;28;20047;-43
2021/06/22 08:02:17;;;;;;;15.32;12.10;;;16.80;97.00;;;;;;5075514;28;20047;-42
2021/06/22 08:04:43;;;;;;;13.20;10.70;;;16.80;96.90;;;;;;5086536;28;20056;-43
2021/06/22 08:07:08;;;;;;;12.50;10.95;;;16.80;97.20;;;;;;5079328;28;20036;-43
2021/06/22 08:09:34;;;;;;;14.60;11.13;;;16.90;97.20;;;;;;5087536;28;20028;-43
2021/06/22 08:12:00;;;;;;;15.48;11.73;;;16.90;97.00;;;;;;5081246;28;20034;-42
2021/06/22 08:14:26;;;;;;;13.52;11.48;;;16.90;96.60;;;;;;5067808;28;20415;-42
2021/06/22 08:16:51;;;;;;;13.60;10.98;;;16.90;96.70;;;;;;5075215;28;20024;-42
2021/06/22 08:19:17;;;;;;;15.68;11.55;;;17.00;96.70;;;;;;5069599;28;20487;-42
2021/06/22 08:21:42;;;;;;;15.68;11.80;;;17.00;96.30;;;;;;5073145;28;20463;-43
2021/06/22 08:24:08;;;;;;;14.52;11.65;;;17.00;95.90;;;;;;5071789;28;20185;-42
2021/06/22 08:26:34;;;;;;;13.32;11.38;;;17.00;95.80;;;;;;5069962;28;20066;-43
2021/06/22 08:29:01;;;;;;;14.88;11.40;;;16.90;96.00;;;;;;5074448;28;20036;-43
2021/06/22 08:31:26;;;;;;;15.05;11.43;;;16.90;96.00;;;;;;5068114;28;20028;-43
2021/06/22 08:33:52;;;;;;;11.60;10.23;;;16.90;95.80;;;;;;5077567;28;20474;-43
2021/06/22 08:36:17;;;;;;;18.35;10.88;;;16.80;95.70;;;;;;5067630;28;20102;-43
2021/06/22 08:38:43;;;;;;;12.23;10.52;;;16.80;95.90;;;;;;5077432;28;20024;-42
2021/06/22 08:41:09;;;;;;;19.25;12.35;;;16.90;96.00;;;;;;5068520;28;20056;-42
2021/06/22 08:43:35;;;;;;;14.68;11.43;;;17.00;94.80;;;;;;5070989;28;20039;-42
2021/06/22 08:46:10;;;;;;;11.73;10.50;;;17.00;95.20;;;;;;5074233;28;20028;-43
2021/06/22 08:48:35;;;;;;;13.57;10.25;;;17.00;95.00;;;;;;5071407;28;20051;-43
2021/06/22 08:51:01;;;;;;;14.65;10.30;;;17.10;95.30;;;;;;5068870;28;20528;-43
2021/06/22 08:53:27;;;;;;;15.30;10.20;;;17.20;95.10;;;;;;5073604;28;20016;-43
2021/06/22 08:55:53;;;;;;;12.60;10.50;;;17.20;94.40;;;;;;5063897;28;20498;-43
2021/06/22 08:58:19;;;;;;;12.77;10.25;;;17.30;94.60;;;;;;5071764;28;20598;-42
2021/06/22 09:00:48;;;;;;;14.20;10.43;;;17.30;94.80;;;;;;5069070;28;20402;-43
2021/06/22 09:03:22;;;;;;;14.15;10.10;;;17.40;94.50;;;;;;5068036;28;20354;-42
2021/06/22 09:05:50;;;;;;;15.55;10.40;;;17.40;94.50;;;;;;5068827;28;20147;-42
2021/06/22 09:08:21;;;;;;;11.93;9.80;;;17.40;94.30;;;;;;5079603;28;20017;-43
2021/06/22 09:10:50;;;;;;;11.32;9.27;;;17.40;94.20;;;;;;5083572;28;20016;-43
2021/06/22 09:13:21;;;;;;;12.73;10.30;;;17.30;94.20;;;;;;5072983;28;20018;-42
2021/06/22 09:15:49;;;;;;;11.32;9.45;;;17.30;94.30;;;;;;5074388;28;20095;-42
2021/06/22 09:18:40;;;;;;;14.73;10.43;;;17.30;94.30;;;;;;5071557;28;20101;-42
2021/06/22 09:21:11;;;;;;;11.73;10.52;;;17.40;94.30;;;;;;5072911;28;20020;-42
2021/06/22 09:23:38;;;;;;;11.60;10.38;;;17.40;94.20;;;;;;5074387;28;20039;-42
2021/06/22 09:26:21;;;;;;;11.73;9.20;;;17.40;94.10;;;;;;5076247;28;20358;-43
2021/06/22 09:28:47;;;;;;;;;;;17.50;94.10;;;;;;5074855;28;20020;-42
2021/06/22 09:31:18;;;;;;;13.65;9.27;;;17.60;94.30;;;;;;5076570;28;19908;-42
2021/06/22 09:33:51;;;;;;;11.02;9.80;;;17.60;94.40;;;;;;5072657;28;20417;-42
2021/06/22 09:36:21;;;;;;;11.35;9.48;;;17.70;94.20;;;;;;5077150;28;20028;-42
2021/06/22 09:38:52;;;;;;;11.30;9.02;;;17.80;93.30;;;;;;5071427;28;20025;-42
2021/06/22 09:41:35;;;;;;;11.40;9.07;;;17.90;93.70;;;;;;5078088;28;20029;-42
2021/06/22 09:44:10;;;;;;;9.18;7.85;;;18.00;93.50;;;;;;5071462;28;20495;-41
2021/06/22 09:46:51;;;;;;;10.70;8.10;;;18.10;93.40;;;;;;5077972;28;20028;-42
2021/06/22 09:49:20;;;;;;;10.27;8.60;;;18.30;93.50;;;;;;5072495;28;20044;-42
2021/06/22 09:51:52;;;;;;;11.27;8.55;;;18.30;93.10;;;;;;5076285;28;20021;-42
2021/06/22 09:54:45;;;;;;;9.60;8.13;;;18.50;93.10;;;;;;5071138;28;20472;-42
2021/06/22 09:57:16;;;;;;;9.65;8.60;;;18.50;92.90;;;;;;5062456;28;20071;-42
2021/06/22 10:00:07;;;;;;;8.38;7.15;;;18.50;92.40;;;;;;5072938;28;20486;-43
2021/06/22 10:02:54;;;;;;;9.48;8.48;;;18.50;92.80;;;;;;5073342;28;20348;-43
2021/06/22 10:05:20;;;;;;;10.68;8.30;;;18.50;92.00;;;;;;5076992;28;20082;-42
2021/06/22 10:07:45;;;;;;;13.30;9.13;;;18.60;92.30;;;;;;5073305;28;20456;-44
2021/06/22 10:10:11;;;;;;;12.25;9.32;;;18.60;91.70;;;;;;5073321;28;20019;-42
2021/06/22 10:12:43;;;;;;;9.57;8.60;;;18.60;91.60;;;;;;5075467;28;20028;-43
2021/06/22 10:15:09;;;;;;;13.60;11.00;;;18.50;91.40;;;;;;5072464;28;20348;-43
2021/06/22 10:17:35;;;;;;;12.00;9.60;;;18.40;90.10;;;;;;5079659;28;20077;-43
2021/06/22 10:20:04;;;;;;;9.90;8.88;;;18.30;91.00;;;;;;5086803;28;20517;-43
2021/06/22 10:22:32;;;;;;;13.52;8.95;;;18.20;91.00;;;;;;5066875;28;20103;-43
2021/06/22 10:25:00;;;;;;;9.70;7.82;;;18.10;91.10;;;;;;5080347;28;20031;-43
2021/06/22 10:27:27;;;;;;;10.30;7.10;;;18.10;90.60;;;;;;5064768;28;20154;-43
2021/06/22 10:29:55;;;;;;;9.25;6.63;;;18.10;90.80;;;;;;5059023;28;20074;-43
2021/06/22 10:32:23;;;;;;;8.00;6.47;;;18.00;90.80;;;;;;5067190;28;20498;-42
2021/06/22 10:34:53;;;;;;;8.10;6.45;;;18.00;90.90;;;;;;5065215;28;20055;-42
2021/06/22 10:37:26;;;;;;;7.90;6.72;;;18.10;90.60;;;;;;5072571;28;20031;-42
2021/06/22 10:39:55;;;;;;;8.13;6.60;;;18.20;90.50;;;;;;5056958;28;20040;-42
2021/06/22 10:42:22;;;;;;;9.38;7.00;;;18.20;90.70;;;;;;5077554;28;20036;-42
2021/06/22 10:44:50;;;;;;;9.45;7.05;;;18.20;90.70;;;;;;5055879;28;20041;-42
2021/06/22 10:47:21;;;;;;;8.40;6.85;;;18.20;90.60;;;;;;5077190;28;20115;-43
2021/06/22 10:50:09;;;;;;;9.32;6.82;;;18.30;90.40;;;;;;5068131;28;20039;-43
2021/06/22 10:52:47;;;;;;;8.35;6.20;;;18.20;90.10;;;;;;5065158;28;20147;-43
2021/06/22 10:55:20;;;;;;;10.10;6.47;;;18.20;90.30;;;;;;5087910;28;20059;-42
2021/06/22 11:00:59;;;;;;;8.85;7.47;;;18.20;90.10;;;;;;5053783;28;20036;-43
2021/06/22 11:03:29;;;;;;;10.32;7.78;;;18.20;90.20;;;;;;5075304;28;20055;-43
2021/06/22 11:06:13;;;;;;;10.80;7.70;;;18.20;88.50;;;;;;5066676;28;20053;-42
2021/06/22 11:08:42;;;;;;;7.70;6.85;;;18.20;88.70;;;;;;5077723;28;20028;-42
2021/06/22 11:11:11;;;;;;;8.07;6.60;;;18.20;88.80;;;;;;5062404;28;20017;-42
2021/06/22 11:13:40;;;;;;;9.63;7.25;;;18.20;89.00;;;;;;5066501;28;20027;-43
2021/06/22 11:16:30;;;;;;;8.73;6.43;;;18.20;88.70;;;;;;5055673;28;20102;-42
2021/06/22 11:18:58;;;;;;;9.65;7.07;;;18.40;88.90;;;;;;5063063;28;20012;-43
2021/06/22 11:21:25;;;;;;;9.73;7.22;;;18.40;86.40;;;;;;5086779;28;20410;-42
2021/06/22 11:24:06;;;;;;;8.93;8.02;;;18.50;87.00;;;;;;5074069;28;20055;-42
2021/06/22 11:26:41;;;;;;;7.93;7.13;;;18.60;87.00;;;;;;5087403;28;20062;-42
2021/06/22 11:29:09;;;;;;;10.38;8.20;;;18.70;86.60;;;;;;5073966;28;20270;-42
2021/06/22 11:31:44;;;;;;;8.23;7.43;;;18.70;86.50;;;;;;5087116;28;20016;-43
2021/06/22 11:34:21;;;;;;;10.57;7.75;;;18.60;86.80;;;;;;5073995;28;20111;-42
2021/06/22 11:36:49;;;;;;;11.20;8.02;;;18.50;85.70;;;;;;5087077;28;20043;-42
2021/06/22 11:39:26;;;;;;;12.35;8.55;;;18.50;85.20;;;;;;5074184;28;20028;-42
2021/06/22 11:42:14;;;;;;;8.73;7.10;;;18.50;84.60;;;;;;5086799;28;20126;-42
2021/06/22 11:44:48;;;;;;;8.35;7.00;;;18.50;85.70;;;;;;5074280;28;20146;-42
2021/06/22 11:47:13;;;;;;;9.77;6.88;;;18.60;85.60;;;;;;5087066;28;20093;-42
2021/06/22 11:49:40;;;;;;;8.30;6.68;;;18.70;85.40;;;;;;5073587;28;20073;-42
2021/06/22 11:52:08;;;;;;;10.68;6.03;;;18.70;85.60;;;;;;5084897;28;20051;-43
2021/06/22 11:54:46;;;;;;;8.18;5.85;;;18.80;85.50;;;;;;5071692;28;20021;-42
2021/06/22 11:57:21;;;;;;;10.02;6.38;;;18.90;85.80;;;;;;5085390;28;20032;-42
2021/06/22 11:59:48;;;;;;;8.48;6.40;;;19.10;85.90;;;;;;5072299;28;20464;-43
2021/06/22 12:02:15;;;;;;;9.27;6.13;;;19.20;85.40;;;;;;5084659;28;20020;-42
2021/06/22 12:04:42;;;;;;;9.23;5.35;;;19.30;85.10;;;;;;5073021;28;20041;-43
2021/06/22 12:07:09;;;;;;;6.47;5.43;;;19.40;85.00;;;;;;5084642;28;20044;-42
2021/06/22 12:09:36;;;;;;;5.82;5.20;;;19.60;84.10;;;;;;5077190;28;20484;-42
2021/06/22 12:12:02;;;;;;;8.73;6.60;;;19.80;84.30;;;;;;5075730;28;20043;-42
2021/06/22 12:14:27;;;;;;;8.65;5.90;;;19.80;84.00;;;;;;5073176;28;20055;-42
2021/06/22 12:16:53;;;;;;;8.77;5.75;;;19.80;84.00;;;;;;5075351;28;20436;-42
2021/06/22 12:19:21;;;;;;;10.25;6.35;;;19.80;83.30;;;;;;5074949;28;20025;-42
2021/06/22 12:21:48;;;;;;;9.52;6.95;;;19.90;83.30;;;;;;5078706;28;20136;-43
2021/06/22 12:24:17;;;;;;;6.60;5.30;;;19.80;81.00;;;;;;5071599;28;20409;-42
2021/06/22 12:26:44;;;;;;;8.63;5.63;;;19.70;82.20;;;;;;5081110;28;20020;-42
2021/06/22 12:29:24;;;;;;;6.53;5.38;;;19.70;83.10;;;;;;5071504;28;20028;-41
2021/06/22 12:32:00;;;;;;;8.20;5.60;;;19.70;82.90;;;;;;5068574;28;20024;-43
2021/06/22 12:34:29;;;;;;;8.25;4.80;;;19.70;82.70;;;;;;5089581;28;20356;-43
2021/06/22 12:36:59;;;;;;;4.70;4.20;;;19.80;82.70;;;;;;5078940;28;20024;-42
2021/06/22 12:39:34;;;;;;;7.03;4.70;;;19.90;83.50;;;;;;5089567;28;20034;-43
2021/06/22 12:42:06;;;;;;;6.03;5.10;;;20.10;83.00;;;;;;5078620;28;20443;-42
2021/06/22 12:44:32;;;;;;;5.22;4.50;;;20.30;82.50;;;;;;5088152;28;20499;-43
2021/06/22 12:47:03;;;;;;;8.10;4.78;;;20.40;82.00;;;;;;5078603;28;20035;-42